createdAt,value
2018-05-04T00:02:15.121Z,19.19
2018-05-04T00:04:43.189Z,19.27
2018-05-04T00:07:11.215Z,18.96
2018-05-04T00:09:39.217Z,19.09
2018-05-04T00:12:07.230Z,19.17
2018-05-04T00:14:35.257Z,19.20
2018-05-04T00:17:03.294Z,19.27
2018-05-04T00:19:31.304Z,19.29
2018-05-04T00:21:59.471Z,18.96
2018-05-04T00:24:27.422Z,18.59
2018-05-04T00:26:55.457Z,18.77
2018-05-04T00:29:23.927Z,18.99
2018-05-04T00:31:51.900Z,19.04
2018-05-04T00:34:19.918Z,19.05
2018-05-04T00:36:47.896Z,18.97
2018-05-04T00:39:15.851Z,19.01
2018-05-04T00:41:43.839Z,19.06
2018-05-04T00:44:11.849Z,18.39
2018-05-04T00:46:39.831Z,17.97
2018-05-04T00:49:07.903Z,18.44
2018-05-04T00:51:35.920Z,18.67
2018-05-04T00:54:15.763Z,18.78
2018-05-04T00:56:43.821Z,18.13
2018-05-04T00:59:11.810Z,18.41
2018-05-04T01:01:40.699Z,18.36
2018-05-04T01:04:08.656Z,18.20
2018-05-04T01:06:36.628Z,18.29
2018-05-04T01:09:05.585Z,18.58
2018-05-04T01:11:33.546Z,18.27
2018-05-04T01:14:01.602Z,17.68
2018-05-04T01:16:29.598Z,17.18
2018-05-04T01:18:57.590Z,17.81
2018-05-04T01:21:25.596Z,18.18
2018-05-04T01:23:53.557Z,17.66
2018-05-04T01:26:21.635Z,17.11
2018-05-04T01:28:49.628Z,17.64
2018-05-04T01:31:17.877Z,18.00
2018-05-04T01:33:45.898Z,18.06
2018-05-04T01:36:13.977Z,16.88
2018-05-04T01:38:42.011Z,17.21
2018-05-04T01:41:10.104Z,17.57
2018-05-04T01:43:38.036Z,17.43
2018-05-04T01:46:06.032Z,17.52
2018-05-04T01:48:34.017Z,17.76
2018-05-04T01:51:02.029Z,18.04
2018-05-04T01:53:30.034Z,18.24
2018-05-04T01:55:58.065Z,18.26
2018-05-04T01:58:26.137Z,18.27
2018-05-04T02:00:54.231Z,17.91
2018-05-04T02:03:22.301Z,18.18
2018-05-04T02:05:50.290Z,17.97
2018-05-04T02:08:18.254Z,17.77
2018-05-04T02:10:46.289Z,18.11
2018-05-04T02:13:14.311Z,18.23
2018-05-04T02:15:42.368Z,17.53
2018-05-04T02:18:10.369Z,18.28
2018-05-04T02:20:38.371Z,18.35
2018-05-04T02:23:06.330Z,18.35
2018-05-04T02:25:34.345Z,18.20
2018-05-04T02:28:02.369Z,18.25
2018-05-04T02:30:30.498Z,18.37
2018-05-04T02:32:58.961Z,18.20
2018-05-04T02:35:27.187Z,18.14
2018-05-04T02:37:55.163Z,17.85
2018-05-04T02:40:23.191Z,17.61
2018-05-04T02:42:51.217Z,17.49
2018-05-04T02:45:19.246Z,17.63
2018-05-04T02:47:47.301Z,17.73
2018-05-04T02:50:15.304Z,17.68
2018-05-04T02:52:43.308Z,17.02
2018-05-04T02:55:11.302Z,17.37
2018-05-04T02:57:39.456Z,17.59
2018-05-04T03:00:07.473Z,17.48
2018-05-04T03:02:35.518Z,17.11
2018-05-04T03:05:03.625Z,17.52
2018-05-04T03:07:31.795Z,17.64
2018-05-04T03:09:59.774Z,17.90
2018-05-04T03:12:27.761Z,17.72
2018-05-04T03:14:55.767Z,17.56
2018-05-04T03:17:23.804Z,17.87
2018-05-04T03:19:51.833Z,18.02
2018-05-04T03:22:19.820Z,18.05
2018-05-04T03:24:48.920Z,17.65
2018-05-04T03:27:16.935Z,17.80
2018-05-04T03:29:44.942Z,18.02
2018-05-04T03:32:12.966Z,18.09
2018-05-04T03:34:41.442Z,18.28
2018-05-04T03:37:09.510Z,18.13
2018-05-04T03:39:37.486Z,18.27
2018-05-04T03:42:05.521Z,18.40
2018-05-04T03:44:33.494Z,18.50
2018-05-04T03:47:01.622Z,18.37
2018-05-04T03:49:29.650Z,18.31
2018-05-04T03:51:57.729Z,18.45
2018-05-04T03:54:25.753Z,18.47
2018-05-04T03:57:05.435Z,18.53
2018-05-04T03:59:45.864Z,18.66
2018-05-04T04:02:25.983Z,18.76
2018-05-04T04:04:54.026Z,18.74
2018-05-04T04:07:22.014Z,18.63
2018-05-04T04:09:50.591Z,18.57
2018-05-04T04:12:18.546Z,18.68
2018-05-04T04:14:46.662Z,18.90
2018-05-04T04:17:14.726Z,18.72
2018-05-04T04:19:42.771Z,19.01
2018-05-04T04:22:10.761Z,18.91
2018-05-04T04:24:38.740Z,18.29
2018-05-04T04:27:06.772Z,18.79
2018-05-04T04:29:34.815Z,19.10
2018-05-04T04:32:02.863Z,18.82
2018-05-04T04:34:30.994Z,18.71
2018-05-04T04:36:59.438Z,18.38
2018-05-04T04:39:27.356Z,18.75
2018-05-04T04:41:55.370Z,18.86
2018-05-04T04:44:23.434Z,18.59
2018-05-04T04:46:51.442Z,17.99
2018-05-04T04:49:19.436Z,17.53
2018-05-04T04:51:47.477Z,18.35
2018-05-04T04:54:15.608Z,18.24
2018-05-04T04:56:43.615Z,17.88
2018-05-04T04:59:13.584Z,18.68
2018-05-04T05:01:42.244Z,17.74
2018-05-04T05:04:10.289Z,17.17
2018-05-04T05:06:38.326Z,17.31
2018-05-04T05:09:06.966Z,17.67
2018-05-04T05:11:35.030Z,17.50
2018-05-04T05:14:03.126Z,17.94
2018-05-04T05:16:31.171Z,17.35
2018-05-04T05:18:59.170Z,17.27
2018-05-04T05:21:27.259Z,17.25
2018-05-04T05:23:55.325Z,17.20
2018-05-04T05:26:23.334Z,17.22
2018-05-04T05:28:51.357Z,17.69
2018-05-04T05:31:19.364Z,17.42
2018-05-04T05:33:47.407Z,17.57
2018-05-04T05:36:15.379Z,17.75
2018-05-04T05:38:43.653Z,17.70
2018-05-04T05:41:11.776Z,17.82
2018-05-04T05:43:39.717Z,18.11
2018-05-04T05:46:07.682Z,18.63
2018-05-04T05:48:35.747Z,19.30
2018-05-04T05:51:03.649Z,20.06
2018-05-04T05:53:31.632Z,20.01
2018-05-04T05:55:59.670Z,20.07
2018-05-04T05:58:27.654Z,20.48
2018-05-04T06:00:55.713Z,20.98
2018-05-04T06:03:23.690Z,21.07
2018-05-04T06:05:51.714Z,21.04
2018-05-04T06:08:19.776Z,21.35
2018-05-04T06:10:47.761Z,21.56
2018-05-04T06:13:15.791Z,21.93
2018-05-04T06:15:43.946Z,22.01
2018-05-04T06:18:11.938Z,22.27
2018-05-04T06:20:39.922Z,23.01
2018-05-04T06:23:07.897Z,23.39
2018-05-04T06:25:36.025Z,23.54
2018-05-04T06:28:04.051Z,23.73
2018-05-04T06:30:32.129Z,23.62
2018-05-04T06:33:00.197Z,24.09
2018-05-04T06:35:28.285Z,24.09
2018-05-04T06:37:56.318Z,24.76
2018-05-04T06:40:24.623Z,24.95
2018-05-04T06:42:52.611Z,24.42
2018-05-04T06:45:20.658Z,24.01
2018-05-04T06:47:48.715Z,24.47
2018-05-04T06:50:16.706Z,25.42
2018-05-04T06:52:44.683Z,25.73
2018-05-04T06:55:12.728Z,25.82
2018-05-04T06:57:40.726Z,25.47
2018-05-04T07:00:08.741Z,26.03
2018-05-04T07:02:36.836Z,26.13
2018-05-04T07:05:04.880Z,25.15
2018-05-04T07:07:32.878Z,26.44
2018-05-04T07:10:00.937Z,26.47
2018-05-04T07:12:28.940Z,26.85
2018-05-04T07:14:56.961Z,27.63
2018-05-04T07:17:25.027Z,27.89
2018-05-04T07:19:53.041Z,27.42
2018-05-04T07:22:21.051Z,26.72
2018-05-04T07:24:49.086Z,27.13
2018-05-04T07:27:17.176Z,28.05
2018-05-04T07:29:45.218Z,28.20
2018-05-04T07:32:13.175Z,28.06
2018-05-04T07:34:41.303Z,28.62
2018-05-04T07:37:09.256Z,29.16
2018-05-04T07:39:37.300Z,28.74
2018-05-04T07:42:05.550Z,29.33
2018-05-04T07:44:33.581Z,29.64
2018-05-04T07:47:01.639Z,28.27
2018-05-04T07:49:29.696Z,28.84
2018-05-04T07:51:57.663Z,28.79
2018-05-04T07:54:25.676Z,28.50
2018-05-04T07:56:53.707Z,28.73
2018-05-04T07:59:21.734Z,28.94
2018-05-04T08:01:49.739Z,28.05
2018-05-04T08:04:17.747Z,28.13
2018-05-04T08:06:45.621Z,27.77
2018-05-04T08:09:13.687Z,27.08
2018-05-04T08:11:41.688Z,27.24
2018-05-04T08:14:09.702Z,27.44
2018-05-04T08:16:37.713Z,28.08
2018-05-04T08:19:05.688Z,28.89
2018-05-04T08:21:33.702Z,29.46
2018-05-04T08:24:01.771Z,30.26
2018-05-04T08:26:29.828Z,31.37
2018-05-04T08:28:57.790Z,31.21
2018-05-04T08:31:25.816Z,32.42
2018-05-04T08:33:53.851Z,32.92
2018-05-04T08:36:21.982Z,32.78
2018-05-04T08:38:50.022Z,33.08
2018-05-04T08:41:17.989Z,32.95
2018-05-04T08:43:46.300Z,32.59
2018-05-04T08:46:14.401Z,32.75
2018-05-04T08:48:42.429Z,32.54
2018-05-04T08:51:10.445Z,32.89
2018-05-04T08:53:38.469Z,31.91
2018-05-04T08:56:06.593Z,31.61
2018-05-04T08:58:34.579Z,30.75
2018-05-04T09:01:03.151Z,31.44
2018-05-04T09:03:31.231Z,32.44
2018-05-04T09:05:59.446Z,32.44
2018-05-04T09:08:27.568Z,32.67
2018-05-04T09:10:55.570Z,33.75
2018-05-04T09:13:23.663Z,34.65
2018-05-04T09:15:51.657Z,34.49
2018-05-04T09:18:19.753Z,34.81
2018-05-04T09:20:47.747Z,34.53
2018-05-04T09:23:15.752Z,34.59
2018-05-04T09:25:43.771Z,33.13
2018-05-04T09:28:12.798Z,34.35
2018-05-04T09:30:40.801Z,34.14
2018-05-04T09:33:08.865Z,34.10
2018-05-04T09:35:37.008Z,34.37
2018-05-04T09:38:05.046Z,33.53
2018-05-04T09:40:33.058Z,34.34
2018-05-04T09:43:01.098Z,35.06
2018-05-04T09:45:29.505Z,35.29
2018-05-04T09:47:57.551Z,34.89
2018-05-04T09:50:25.521Z,33.94
2018-05-04T09:52:53.555Z,33.00
2018-05-04T09:55:21.664Z,33.98
2018-05-04T09:57:49.772Z,34.02
2018-05-04T10:00:17.816Z,34.00
2018-05-04T10:02:45.878Z,33.13
2018-05-04T10:05:13.922Z,34.02
2018-05-04T10:07:41.912Z,35.27
2018-05-04T10:10:09.867Z,33.98
2018-05-04T10:12:37.890Z,34.90
2018-05-04T10:15:05.928Z,36.17
2018-05-04T10:17:33.989Z,35.93
2018-05-04T10:20:02.011Z,35.30
2018-05-04T10:22:29.970Z,35.25
2018-05-04T10:24:57.975Z,35.80
2018-05-04T10:27:26.025Z,36.36
2018-05-04T10:29:54.058Z,36.31
2018-05-04T10:32:22.162Z,35.95
2018-05-04T10:34:50.264Z,35.85
2018-05-04T10:37:18.367Z,35.96
2018-05-04T10:39:46.433Z,36.84
2018-05-04T10:42:14.426Z,36.71
2018-05-04T10:44:42.497Z,38.09
2018-05-04T10:47:10.761Z,36.77
2018-05-04T10:49:38.763Z,34.13
2018-05-04T10:52:06.940Z,34.08
2018-05-04T10:54:35.090Z,33.06
2018-05-04T10:57:03.302Z,33.42
2018-05-04T10:59:31.364Z,33.56
2018-05-04T11:01:59.519Z,32.40
2018-05-04T11:04:27.659Z,31.92
2018-05-04T11:06:55.665Z,30.54
2018-05-04T11:09:23.690Z,31.01
2018-05-04T11:11:51.809Z,30.93
2018-05-04T11:14:19.850Z,31.01
2018-05-04T11:16:47.963Z,31.24
2018-05-04T11:19:15.998Z,29.72
2018-05-04T11:21:44.049Z,29.27
2018-05-04T11:24:12.209Z,29.46
2018-05-04T11:26:40.297Z,29.65
2018-05-04T11:29:08.350Z,29.24
2018-05-04T11:31:36.515Z,29.23
2018-05-04T11:34:04.487Z,29.16
2018-05-04T11:36:32.497Z,28.89
2018-05-04T11:39:00.790Z,28.71
2018-05-04T11:41:28.764Z,28.82
2018-05-04T11:43:56.847Z,29.17
2018-05-04T11:46:24.861Z,29.65
2018-05-04T11:48:53.285Z,29.31
2018-05-04T11:51:21.659Z,29.85
2018-05-04T11:53:49.741Z,30.69
2018-05-04T11:56:17.745Z,31.69
2018-05-04T11:58:45.700Z,32.99
2018-05-04T12:01:13.689Z,32.69
2018-05-04T12:03:41.738Z,33.47
2018-05-04T12:06:09.758Z,34.51
2018-05-04T12:08:37.757Z,33.32
2018-05-04T12:11:05.796Z,32.83
2018-05-04T12:13:33.939Z,31.28
2018-05-04T12:16:01.906Z,31.58
2018-05-04T12:18:29.962Z,31.39
2018-05-04T12:20:57.969Z,31.05
2018-05-04T12:23:25.958Z,30.73
2018-05-04T12:25:53.965Z,30.48
2018-05-04T12:28:22.010Z,30.46
2018-05-04T12:30:50.054Z,30.67
2018-05-04T12:33:18.085Z,30.06
2018-05-04T12:35:46.119Z,29.67
2018-05-04T12:38:14.052Z,29.97
2018-05-04T12:40:42.100Z,30.11
2018-05-04T12:43:10.054Z,29.74
2018-05-04T12:45:38.031Z,29.98
2018-05-04T12:48:06.142Z,29.87
2018-05-04T12:50:34.848Z,29.95
2018-05-04T12:53:02.862Z,29.39
2018-05-04T12:55:30.911Z,29.64
2018-05-04T12:57:58.959Z,29.12
2018-05-04T13:00:26.986Z,29.46
2018-05-04T13:02:54.982Z,29.76
2018-05-04T13:05:22.997Z,29.72
2018-05-04T13:07:51.053Z,29.99
2018-05-04T13:10:19.088Z,28.88
2018-05-04T13:12:47.106Z,28.50
2018-05-04T13:15:15.155Z,28.66
2018-05-04T13:17:43.146Z,28.92
2018-05-04T13:20:11.130Z,28.70
2018-05-04T13:22:39.150Z,28.66
2018-05-04T13:25:07.116Z,28.88
2018-05-04T13:27:35.097Z,29.00
2018-05-04T13:30:03.133Z,28.72
2018-05-04T13:32:31.150Z,29.13
2018-05-04T13:34:59.174Z,29.40
2018-05-04T13:37:27.232Z,29.39
2018-05-04T13:39:55.409Z,29.69
2018-05-04T13:42:23.514Z,29.45
2018-05-04T13:44:51.491Z,29.17
2018-05-04T13:47:19.563Z,29.40
2018-05-04T13:49:47.543Z,29.90
2018-05-04T13:52:15.965Z,30.03
2018-05-04T13:54:44.011Z,29.33
2018-05-04T13:57:12.976Z,29.77
2018-05-04T13:59:41.015Z,30.16
2018-05-04T14:02:09.054Z,30.25
2018-05-04T14:04:37.025Z,29.92
2018-05-04T14:07:05.047Z,30.05
2018-05-04T14:09:33.078Z,29.71
2018-05-04T14:12:01.088Z,30.33
2018-05-04T14:14:29.111Z,29.66
2018-05-04T14:16:57.131Z,29.59
2018-05-04T14:19:25.134Z,29.72
2018-05-04T14:21:53.189Z,29.25
2018-05-04T14:24:22.001Z,28.66
2018-05-04T14:26:50.077Z,29.35
2018-05-04T14:29:18.135Z,29.49
2018-05-04T14:31:46.120Z,29.08
2018-05-04T14:34:14.176Z,28.94
2018-05-04T14:36:42.215Z,29.26
2018-05-04T14:39:10.236Z,29.38
2018-05-04T14:41:38.191Z,29.04
2018-05-04T14:44:06.329Z,28.47
2018-05-04T14:46:34.376Z,28.47
2018-05-04T14:49:02.384Z,29.22
2018-05-04T14:51:30.517Z,29.45
2018-05-04T14:53:58.839Z,29.31
2018-05-04T14:56:26.917Z,29.47
2018-05-04T15:01:22.111Z,29.58
2018-05-04T15:03:50.140Z,29.12
2018-05-04T15:06:18.250Z,29.13
2018-05-04T15:08:46.271Z,29.37
2018-05-04T15:11:14.210Z,29.21
2018-05-04T15:13:42.215Z,29.06
2018-05-04T15:16:10.208Z,28.99
2018-05-04T15:18:38.287Z,28.75
2018-05-04T15:21:06.313Z,28.61
2018-05-04T15:23:34.349Z,28.74
2018-05-04T15:26:02.506Z,28.82
2018-05-04T15:28:30.497Z,29.14
2018-05-04T15:30:58.478Z,29.28
2018-05-04T15:33:26.567Z,29.44
2018-05-04T15:35:54.578Z,28.88
2018-05-04T15:38:22.516Z,28.64
2018-05-04T15:40:50.529Z,28.67
2018-05-04T15:43:18.518Z,28.32
2018-05-04T15:45:46.466Z,28.11
2018-05-04T15:48:20.138Z,28.18
2018-05-04T15:50:53.767Z,28.22
2018-05-04T15:53:21.795Z,28.12
2018-05-04T15:55:50.144Z,28.08
2018-05-04T15:58:18.180Z,28.03
2018-05-04T16:00:46.295Z,28.36
2018-05-04T16:03:14.290Z,28.56
2018-05-04T16:05:42.308Z,28.61
2018-05-04T16:08:10.286Z,28.73
2018-05-04T16:10:38.275Z,27.79
2018-05-04T16:13:06.246Z,27.64
2018-05-04T16:15:34.331Z,27.78
2018-05-04T16:18:02.282Z,27.50
2018-05-04T16:20:30.320Z,27.42
2018-05-04T16:22:58.330Z,27.66
2018-05-04T16:25:26.334Z,27.97
2018-05-04T16:27:54.342Z,28.10
2018-05-04T16:30:22.361Z,27.89
2018-05-04T16:32:50.449Z,27.61
2018-05-04T16:35:18.493Z,27.62
2018-05-04T16:37:46.466Z,27.41
2018-05-04T16:40:14.480Z,27.20
2018-05-04T16:42:42.528Z,27.07
2018-05-04T16:45:10.530Z,27.07
2018-05-04T16:47:44.184Z,26.97
2018-05-04T16:50:12.175Z,27.01
2018-05-04T16:52:40.250Z,26.60
2018-05-04T16:55:08.227Z,26.53
2018-05-04T16:57:36.618Z,25.88
2018-05-04T17:00:04.735Z,26.05
2018-05-04T17:02:32.713Z,25.81
2018-05-04T17:05:00.865Z,25.86
2018-05-04T17:07:28.922Z,25.88
2018-05-04T17:09:56.991Z,25.83
2018-05-04T17:12:25.041Z,25.57
2018-05-04T17:14:53.056Z,25.54
2018-05-04T17:17:21.172Z,25.50
2018-05-04T17:19:49.222Z,25.11
2018-05-04T17:22:17.292Z,24.60
2018-05-04T17:24:45.296Z,24.59
2018-05-04T17:27:13.302Z,24.45
2018-05-04T17:29:41.350Z,24.36
2018-05-04T17:32:09.387Z,24.27
2018-05-04T17:34:37.446Z,24.57
2018-05-04T17:37:05.513Z,24.25
2018-05-04T17:39:33.572Z,24.19
2018-05-04T17:42:01.596Z,24.33
2018-05-04T17:44:29.555Z,23.99
2018-05-04T17:46:57.567Z,24.03
2018-05-04T17:49:25.659Z,23.78
2018-05-04T17:51:53.642Z,24.18
2018-05-04T17:54:21.669Z,23.74
2018-05-04T17:56:49.724Z,23.48
2018-05-04T17:59:18.127Z,23.55
2018-05-04T18:01:46.205Z,23.62
2018-05-04T18:04:14.194Z,23.75
2018-05-04T18:06:42.224Z,23.85
2018-05-04T18:09:10.222Z,23.78
2018-05-04T18:11:38.163Z,23.45
2018-05-04T18:14:06.169Z,23.79
2018-05-04T18:16:34.165Z,23.93
2018-05-04T18:19:02.133Z,23.88
2018-05-04T18:21:30.146Z,23.76
2018-05-04T18:23:58.107Z,23.81
2018-05-04T18:26:26.142Z,23.85
2018-05-04T18:28:54.165Z,23.95
2018-05-04T18:31:22.215Z,23.82
2018-05-04T18:33:50.263Z,23.27
2018-05-04T18:36:18.209Z,22.84
2018-05-04T18:38:46.194Z,22.37
2018-05-04T18:41:14.218Z,22.39
2018-05-04T18:43:42.193Z,22.53
2018-05-04T18:46:10.206Z,22.46
2018-05-04T18:48:38.226Z,22.87
2018-05-04T18:51:06.377Z,22.61
2018-05-04T18:53:34.387Z,22.67
2018-05-04T18:56:02.439Z,23.02
2018-05-04T18:58:30.447Z,23.01
2018-05-04T19:00:58.416Z,22.90
2018-05-04T19:03:26.408Z,23.09
2018-05-04T19:05:54.443Z,22.82
2018-05-04T19:08:22.410Z,22.99
2018-05-04T19:10:50.419Z,23.07
2018-05-04T19:13:18.429Z,22.88
2018-05-04T19:15:46.349Z,22.91
2018-05-04T19:18:14.373Z,23.01
2018-05-04T19:20:42.456Z,23.03
2018-05-04T19:23:10.444Z,22.99
2018-05-04T19:25:38.481Z,22.39
2018-05-04T19:28:06.487Z,22.65
2018-05-04T19:30:34.439Z,22.36
2018-05-04T19:33:02.453Z,21.99
2018-05-04T19:35:30.485Z,22.12
2018-05-04T19:37:58.483Z,22.34
2018-05-04T19:40:26.483Z,22.41
2018-05-04T19:42:54.506Z,21.96
2018-05-04T19:45:22.541Z,21.90
2018-05-04T19:47:50.558Z,22.04
2018-05-04T19:50:18.515Z,21.80
2018-05-04T19:52:46.492Z,21.39
2018-05-04T19:55:14.620Z,21.23
2018-05-04T19:57:42.662Z,21.35
2018-05-04T20:00:10.644Z,21.72
2018-05-04T20:02:38.720Z,21.71
2018-05-04T20:05:06.697Z,21.75
2018-05-04T20:07:34.716Z,21.78
2018-05-04T20:10:02.819Z,21.72
2018-05-04T20:12:30.802Z,21.59
2018-05-04T20:14:58.860Z,21.32
2018-05-04T20:17:26.815Z,20.88
2018-05-04T20:19:54.883Z,20.72
2018-05-04T20:22:22.892Z,20.32
2018-05-04T20:24:50.953Z,20.47
2018-05-04T20:27:18.893Z,20.77
2018-05-04T20:29:46.942Z,20.80
2018-05-04T20:32:14.937Z,20.41
2018-05-04T20:34:42.906Z,20.49
2018-05-04T20:37:10.883Z,20.47
2018-05-04T20:39:38.949Z,20.54
2018-05-04T20:42:06.857Z,20.63
2018-05-04T20:44:34.835Z,20.57
2018-05-04T20:47:02.849Z,20.71
2018-05-04T20:49:30.907Z,20.68
2018-05-04T20:51:58.942Z,20.67
2018-05-04T20:54:26.873Z,20.59
2018-05-04T20:56:54.969Z,20.68
2018-05-04T20:59:22.954Z,20.73
2018-05-04T21:01:50.975Z,20.61
2018-05-04T21:04:19.161Z,20.37
2018-05-04T21:06:47.223Z,20.36
2018-05-04T21:09:15.147Z,20.67
2018-05-04T21:11:43.197Z,20.63
2018-05-04T21:14:11.198Z,20.59
2018-05-04T21:16:39.169Z,20.45
2018-05-04T21:19:07.127Z,20.52
2018-05-04T21:21:35.141Z,20.65
2018-05-04T21:24:03.152Z,20.60
2018-05-04T21:26:31.149Z,20.62
2018-05-04T21:28:59.191Z,20.68
2018-05-04T21:31:27.237Z,20.13
2018-05-04T21:33:55.200Z,19.92
2018-05-04T21:36:23.208Z,20.16
2018-05-04T21:38:51.180Z,19.98
2018-05-04T21:41:19.199Z,20.32
2018-05-04T21:43:47.242Z,20.22
2018-05-04T21:46:15.241Z,20.18
2018-05-04T21:48:43.261Z,20.13
2018-05-04T21:51:11.328Z,20.28
2018-05-04T21:53:39.275Z,20.50
2018-05-04T21:56:07.349Z,20.01
2018-05-04T21:58:35.350Z,20.08
2018-05-04T22:01:03.368Z,19.84
2018-05-04T22:03:31.382Z,19.58
2018-05-04T22:05:59.919Z,19.85
2018-05-04T22:08:27.902Z,19.85
2018-05-04T22:10:55.912Z,20.07
2018-05-04T22:13:23.935Z,19.87
2018-05-04T22:15:52.853Z,19.58
2018-05-04T22:18:20.837Z,19.30
2018-05-04T22:20:48.988Z,19.32
2018-05-04T22:23:16.983Z,19.25
2018-05-04T22:25:44.954Z,19.57
2018-05-04T22:28:12.991Z,19.67
2018-05-04T22:30:40.971Z,19.55
2018-05-04T22:33:08.934Z,19.53
2018-05-04T22:35:37.624Z,19.33
2018-05-04T22:38:05.626Z,19.22
2018-05-04T22:40:33.683Z,19.09
2018-05-04T22:43:01.739Z,19.00
2018-05-04T22:45:29.804Z,18.82
2018-05-04T22:47:57.821Z,18.77
2018-05-04T22:50:25.826Z,18.90
2018-05-04T22:52:53.860Z,19.27
2018-05-04T22:55:21.867Z,19.20
2018-05-04T22:57:49.865Z,19.08
2018-05-04T23:00:19.663Z,19.03
2018-05-04T23:02:47.779Z,19.07
2018-05-04T23:05:15.835Z,19.26
2018-05-04T23:07:44.200Z,18.65
2018-05-04T23:10:12.242Z,19.03
2018-05-04T23:12:40.276Z,18.76
2018-05-04T23:15:08.306Z,18.51
2018-05-04T23:17:36.306Z,18.50
2018-05-04T23:20:04.374Z,18.60
2018-05-04T23:22:32.353Z,18.65
2018-05-04T23:25:00.398Z,18.59
2018-05-04T23:27:28.391Z,18.57
2018-05-04T23:29:56.531Z,18.94
2018-05-04T23:32:24.486Z,19.02
2018-05-04T23:34:52.590Z,19.02
2018-05-04T23:37:21.448Z,18.79
2018-05-04T23:39:49.505Z,18.72
2018-05-04T23:42:17.482Z,19.05
2018-05-04T23:44:45.500Z,19.08
2018-05-04T23:47:13.445Z,19.10
2018-05-04T23:49:41.426Z,19.33
2018-05-04T23:52:09.428Z,19.37
2018-05-04T23:54:37.573Z,19.39
2018-05-04T23:57:05.538Z,18.95
2018-05-04T23:59:33.531Z,18.95
